Hovedside
METAR-TAF:

METAR-TAF

Lufthavner :

Guelmim, Marokko

breddegrad: 29-01-00N, lengdegrad: 10-04-04W, høyde over havet: 301 m

Gjeldene værobservasjon

Denne rapporten ble laget for 15 minutter siden, klokken 10:00 UTC
Vind 5 kt fra Sør-sørvest, skiftende mellom Sør og Vest
Temperatur 14°C
Luftfuktighet 88%
Trykk 1020 hPa
Sikt: 5000 m
Få skyer i en høyde av 600 ft
Spredte skyer i en høyde av 1000 ft

METAR: GMAG 261000Z 21005KT 180V260 5000 FEW006 SCT010 14/12 Q1020 NOSIG

Tid: 11:15 (10:15 UTC)

Varsel

Denne rapporten ble laget for 4 timer og 15 minutter siden, klokken 06:00 UTC
Varsel gyldig fra 26. klokken 06 UTC til 27. klokken 12 UTC
Vind 5 kt fra Sør
Sikt: 4000 m
dis
Blir
fra 26. klokken 07 UTC til 26. klokken 11 UTC
Sikt: 6000 m

TAF: GMAG 260600Z 2606/2712 18005KT 4000 BR NSC BECMG 2607/2611 6000 NSW

Værobservasjoner og værvarsel for over 4000 flyplasser (METAR- og TAF-rapporter).

Tilgjengelige stasjoner er representert av de røde og gule prikkene på kartet.

Hold musepekeren over prikken for å se navnet på stasjonen.

Klikk så for å se værobservasjoner og -varsler.

For å forandre kartet kan du klikke på den grønne knappen med svart kryss for å zoome inn, på den grønne knappen med strek for å zoome ut, eller på de grønne pilene for å se tilstøtende kart.


METAR-TAF: